sensor_id;sensor_type;location;lat;lon;timestamp;P1;durP1;ratioP1;P2;durP2;ratioP2
25824;SDS011;13658;44.534;18.694;2024-02-28T00:01:49;89.20;;;46.35;;
25824;SDS011;13658;44.534;18.694;2024-02-28T00:04:16;91.50;;;47.83;;
25824;SDS011;13658;44.534;18.694;2024-02-28T00:06:42;82.90;;;43.95;;
25824;SDS011;13658;44.534;18.694;2024-02-28T00:09:09;92.20;;;45.65;;
25824;SDS011;13658;44.534;18.694;2024-02-28T00:11:36;83.97;;;43.38;;
25824;SDS011;13658;44.534;18.694;2024-02-28T00:14:06;81.07;;;42.83;;
25824;SDS011;13658;44.534;18.694;2024-02-28T00:16:32;86.57;;;45.28;;
25824;SDS011;13658;44.534;18.694;2024-02-28T00:18:58;80.43;;;44.00;;
25824;SDS011;13658;44.534;18.694;2024-02-28T00:21:24;77.13;;;42.85;;
25824;SDS011;13658;44.534;18.694;2024-02-28T00:23:51;62.63;;;32.00;;
25824;SDS011;13658;44.534;18.694;2024-02-28T00:26:17;53.05;;;29.83;;
25824;SDS011;13658;44.534;18.694;2024-02-28T00:28:43;56.53;;;30.90;;
25824;SDS011;13658;44.534;18.694;2024-02-28T00:31:09;65.45;;;34.53;;
25824;SDS011;13658;44.534;18.694;2024-02-28T00:33:35;62.33;;;32.30;;
25824;SDS011;13658;44.534;18.694;2024-02-28T00:36:00;61.90;;;33.05;;
25824;SDS011;13658;44.534;18.694;2024-02-28T00:38:26;60.88;;;31.13;;
25824;SDS011;13658;44.534;18.694;2024-02-28T00:40:53;61.53;;;32.95;;
25824;SDS011;13658;44.534;18.694;2024-02-28T00:43:18;58.63;;;32.38;;
25824;SDS011;13658;44.534;18.694;2024-02-28T00:45:44;68.20;;;34.17;;
25824;SDS011;13658;44.534;18.694;2024-02-28T00:48:10;68.28;;;33.60;;
25824;SDS011;13658;44.534;18.694;2024-02-28T00:50:36;79.93;;;40.22;;
25824;SDS011;13658;44.534;18.694;2024-02-28T00:53:02;68.50;;;37.78;;
25824;SDS011;13658;44.534;18.694;2024-02-28T00:55:28;69.38;;;35.92;;
25824;SDS011;13658;44.534;18.694;2024-02-28T00:57:54;66.13;;;35.85;;
25824;SDS011;13658;44.534;18.694;2024-02-28T01:00:20;69.35;;;35.60;;
25824;SDS011;13658;44.534;18.694;2024-02-28T01:02:46;67.78;;;35.63;;
25824;SDS011;13658;44.534;18.694;2024-02-28T01:05:12;70.68;;;35.50;;
25824;SDS011;13658;44.534;18.694;2024-02-28T01:07:37;70.55;;;35.25;;
25824;SDS011;13658;44.534;18.694;2024-02-28T01:10:03;69.38;;;35.28;;
25824;SDS011;13658;44.534;18.694;2024-02-28T01:12:30;64.13;;;33.13;;
25824;SDS011;13658;44.534;18.694;2024-02-28T01:14:56;61.63;;;31.42;;
25824;SDS011;13658;44.534;18.694;2024-02-28T01:17:22;55.88;;;30.83;;
25824;SDS011;13658;44.534;18.694;2024-02-28T01:19:47;59.45;;;28.83;;
25824;SDS011;13658;44.534;18.694;2024-02-28T01:22:14;56.22;;;29.17;;
25824;SDS011;13658;44.534;18.694;2024-02-28T01:24:39;54.55;;;29.60;;
25824;SDS011;13658;44.534;18.694;2024-02-28T01:27:05;56.70;;;28.92;;
25824;SDS011;13658;44.534;18.694;2024-02-28T01:29:31;59.88;;;29.95;;
25824;SDS011;13658;44.534;18.694;2024-02-28T01:31:57;56.30;;;30.17;;
25824;SDS011;13658;44.534;18.694;2024-02-28T01:34:23;58.65;;;31.15;;
25824;SDS011;13658;44.534;18.694;2024-02-28T01:36:49;56.05;;;30.52;;
25824;SDS011;13658;44.534;18.694;2024-02-28T01:39:15;62.20;;;28.40;;
25824;SDS011;13658;44.534;18.694;2024-02-28T01:41:41;54.92;;;29.17;;
25824;SDS011;13658;44.534;18.694;2024-02-28T01:44:15;57.38;;;29.33;;
25824;SDS011;13658;44.534;18.694;2024-02-28T01:46:40;51.80;;;29.52;;
25824;SDS011;13658;44.534;18.694;2024-02-28T01:49:06;53.85;;;27.98;;
25824;SDS011;13658;44.534;18.694;2024-02-28T01:51:32;53.17;;;28.23;;
25824;SDS011;13658;44.534;18.694;2024-02-28T01:53:58;51.50;;;27.38;;
25824;SDS011;13658;44.534;18.694;2024-02-28T01:56:24;48.63;;;26.33;;
25824;SDS011;13658;44.534;18.694;2024-02-28T01:58:51;57.17;;;27.15;;
25824;SDS011;13658;44.534;18.694;2024-02-28T02:01:19;45.20;;;24.00;;
25824;SDS011;13658;44.534;18.694;2024-02-28T02:03:50;40.95;;;22.10;;
25824;SDS011;13658;44.534;18.694;2024-02-28T02:06:17;40.55;;;23.50;;
25824;SDS011;13658;44.534;18.694;2024-02-28T02:08:43;43.58;;;23.75;;
25824;SDS011;13658;44.534;18.694;2024-02-28T02:11:09;38.90;;;21.73;;
25824;SDS011;13658;44.534;18.694;2024-02-28T02:13:35;39.90;;;21.23;;
25824;SDS011;13658;44.534;18.694;2024-02-28T02:16:12;39.00;;;22.02;;
25824;SDS011;13658;44.534;18.694;2024-02-28T02:18:37;48.17;;;24.17;;
25824;SDS011;13658;44.534;18.694;2024-02-28T02:21:04;41.28;;;22.50;;
25824;SDS011;13658;44.534;18.694;2024-02-28T02:23:32;42.50;;;20.42;;
25824;SDS011;13658;44.534;18.694;2024-02-28T02:25:58;33.63;;;18.63;;
25824;SDS011;13658;44.534;18.694;2024-02-28T02:28:23;37.20;;;17.88;;
25824;SDS011;13658;44.534;18.694;2024-02-28T02:30:49;36.88;;;19.42;;
25824;SDS011;13658;44.534;18.694;2024-02-28T02:33:15;35.13;;;19.58;;
25824;SDS011;13658;44.534;18.694;2024-02-28T02:35:41;35.22;;;19.55;;
25824;SDS011;13658;44.534;18.694;2024-02-28T02:38:07;35.47;;;20.00;;
25824;SDS011;13658;44.534;18.694;2024-02-28T02:40:33;42.45;;;22.17;;
25824;SDS011;13658;44.534;18.694;2024-02-28T02:42:59;36.70;;;21.70;;
25824;SDS011;13658;44.534;18.694;2024-02-28T02:45:25;38.47;;;21.17;;
25824;SDS011;13658;44.534;18.694;2024-02-28T02:47:51;38.80;;;21.10;;
25824;SDS011;13658;44.534;18.694;2024-02-28T02:50:17;36.58;;;21.02;;
25824;SDS011;13658;44.534;18.694;2024-02-28T02:52:42;36.10;;;20.27;;
25824;SDS011;13658;44.534;18.694;2024-02-28T02:55:08;35.58;;;18.30;;
25824;SDS011;13658;44.534;18.694;2024-02-28T02:57:35;46.35;;;21.67;;
25824;SDS011;13658;44.534;18.694;2024-02-28T03:00:01;43.72;;;20.30;;
25824;SDS011;13658;44.534;18.694;2024-02-28T03:02:27;29.70;;;15.40;;
25824;SDS011;13658;44.534;18.694;2024-02-28T03:04:52;33.20;;;17.63;;
25824;SDS011;13658;44.534;18.694;2024-02-28T03:07:18;33.83;;;17.60;;
25824;SDS011;13658;44.534;18.694;2024-02-28T03:09:44;54.28;;;23.05;;
25824;SDS011;13658;44.534;18.694;2024-02-28T03:12:10;44.95;;;20.75;;
25824;SDS011;13658;44.534;18.694;2024-02-28T03:14:36;35.22;;;18.75;;
25824;SDS011;13658;44.534;18.694;2024-02-28T03:17:02;32.00;;;17.75;;
25824;SDS011;13658;44.534;18.694;2024-02-28T03:19:28;30.65;;;17.98;;
25824;SDS011;13658;44.534;18.694;2024-02-28T03:21:54;35.95;;;18.35;;
25824;SDS011;13658;44.534;18.694;2024-02-28T03:24:20;33.05;;;19.00;;
25824;SDS011;13658;44.534;18.694;2024-02-28T03:26:46;33.95;;;19.38;;
25824;SDS011;13658;44.534;18.694;2024-02-28T03:29:12;41.17;;;22.10;;
25824;SDS011;13658;44.534;18.694;2024-02-28T03:31:38;38.40;;;20.15;;
25824;SDS011;13658;44.534;18.694;2024-02-28T03:34:04;37.15;;;21.15;;
25824;SDS011;13658;44.534;18.694;2024-02-28T03:36:30;38.42;;;21.45;;
25824;SDS011;13658;44.534;18.694;2024-02-28T03:38:56;41.55;;;21.17;;
25824;SDS011;13658;44.534;18.694;2024-02-28T03:41:22;37.30;;;19.00;;
25824;SDS011;13658;44.534;18.694;2024-02-28T03:43:48;31.23;;;15.68;;
25824;SDS011;13658;44.534;18.694;2024-02-28T03:46:14;29.95;;;16.17;;
25824;SDS011;13658;44.534;18.694;2024-02-28T03:48:40;25.15;;;15.13;;
25824;SDS011;13658;44.534;18.694;2024-02-28T03:51:06;26.70;;;15.68;;
25824;SDS011;13658;44.534;18.694;2024-02-28T03:53:32;30.83;;;16.20;;
25824;SDS011;13658;44.534;18.694;2024-02-28T03:55:58;33.90;;;19.17;;
25824;SDS011;13658;44.534;18.694;2024-02-28T03:58:24;44.42;;;19.92;;
25824;SDS011;13658;44.534;18.694;2024-02-28T04:00:49;37.33;;;18.67;;
25824;SDS011;13658;44.534;18.694;2024-02-28T04:03:15;57.20;;;22.65;;
25824;SDS011;13658;44.534;18.694;2024-02-28T04:05:42;69.30;;;25.40;;
25824;SDS011;13658;44.534;18.694;2024-02-28T04:08:08;51.35;;;22.55;;
25824;SDS011;13658;44.534;18.694;2024-02-28T04:10:33;39.15;;;19.90;;
25824;SDS011;13658;44.534;18.694;2024-02-28T04:12:59;29.45;;;16.90;;
25824;SDS011;13658;44.534;18.694;2024-02-28T04:15:25;28.00;;;16.17;;
25824;SDS011;13658;44.534;18.694;2024-02-28T04:17:51;35.88;;;17.38;;
25824;SDS011;13658;44.534;18.694;2024-02-28T04:20:17;31.17;;;16.92;;
25824;SDS011;13658;44.534;18.694;2024-02-28T04:22:43;33.00;;;18.08;;
25824;SDS011;13658;44.534;18.694;2024-02-28T04:25:09;35.90;;;20.95;;
25824;SDS011;13658;44.534;18.694;2024-02-28T04:27:36;32.55;;;19.15;;
25824;SDS011;13658;44.534;18.694;2024-02-28T04:30:02;34.25;;;19.95;;
25824;SDS011;13658;44.534;18.694;2024-02-28T04:32:29;35.58;;;19.75;;
25824;SDS011;13658;44.534;18.694;2024-02-28T04:34:54;34.30;;;19.02;;
25824;SDS011;13658;44.534;18.694;2024-02-28T04:37:20;32.95;;;19.73;;
25824;SDS011;13658;44.534;18.694;2024-02-28T04:39:46;34.67;;;19.60;;
25824;SDS011;13658;44.534;18.694;2024-02-28T04:42:13;35.13;;;20.25;;
25824;SDS011;13658;44.534;18.694;2024-02-28T04:44:39;36.35;;;20.13;;
25824;SDS011;13658;44.534;18.694;2024-02-28T04:47:06;66.10;;;31.42;;
25824;SDS011;13658;44.534;18.694;2024-02-28T04:49:31;61.63;;;27.42;;
25824;SDS011;13658;44.534;18.694;2024-02-28T04:51:57;58.15;;;25.90;;
25824;SDS011;13658;44.534;18.694;2024-02-28T04:54:23;38.60;;;18.38;;
25824;SDS011;13658;44.534;18.694;2024-02-28T04:56:49;42.17;;;20.05;;
25824;SDS011;13658;44.534;18.694;2024-02-28T04:59:16;28.65;;;16.90;;
25824;SDS011;13658;44.534;18.694;2024-02-28T05:01:42;33.28;;;17.90;;
25824;SDS011;13658;44.534;18.694;2024-02-28T05:04:08;27.58;;;17.33;;
25824;SDS011;13658;44.534;18.694;2024-02-28T05:06:35;32.72;;;18.52;;
25824;SDS011;13658;44.534;18.694;2024-02-28T05:09:01;31.25;;;18.00;;
25824;SDS011;13658;44.534;18.694;2024-02-28T05:11:27;31.70;;;17.13;;
25824;SDS011;13658;44.534;18.694;2024-02-28T05:13:53;30.27;;;14.35;;
25824;SDS011;13658;44.534;18.694;2024-02-28T05:16:20;28.25;;;14.88;;
25824;SDS011;13658;44.534;18.694;2024-02-28T05:18:46;34.45;;;16.40;;
25824;SDS011;13658;44.534;18.694;2024-02-28T05:21:13;44.10;;;21.33;;
25824;SDS011;13658;44.534;18.694;2024-02-28T05:23:42;39.67;;;22.00;;
25824;SDS011;13658;44.534;18.694;2024-02-28T05:26:08;41.13;;;22.02;;
25824;SDS011;13658;44.534;18.694;2024-02-28T05:28:34;37.63;;;20.02;;
25824;SDS011;13658;44.534;18.694;2024-02-28T05:33:52;37.53;;;20.02;;
25824;SDS011;13658;44.534;18.694;2024-02-28T05:36:20;48.47;;;24.00;;
25824;SDS011;13658;44.534;18.694;2024-02-28T05:38:47;50.85;;;26.45;;
25824;SDS011;13658;44.534;18.694;2024-02-28T05:41:13;59.58;;;32.22;;
25824;SDS011;13658;44.534;18.694;2024-02-28T05:43:40;53.92;;;29.98;;
25824;SDS011;13658;44.534;18.694;2024-02-28T05:46:06;42.38;;;21.08;;
25824;SDS011;13658;44.534;18.694;2024-02-28T05:48:32;50.20;;;22.40;;
25824;SDS011;13658;44.534;18.694;2024-02-28T05:51:00;45.50;;;22.27;;
25824;SDS011;13658;44.534;18.694;2024-02-28T05:53:26;43.35;;;22.42;;
25824;SDS011;13658;44.534;18.694;2024-02-28T05:55:55;41.60;;;21.52;;
25824;SDS011;13658;44.534;18.694;2024-02-28T05:58:22;54.92;;;26.02;;
25824;SDS011;13658;44.534;18.694;2024-02-28T06:00:48;52.75;;;26.15;;
25824;SDS011;13658;44.534;18.694;2024-02-28T06:03:14;51.40;;;26.83;;
25824;SDS011;13658;44.534;18.694;2024-02-28T06:05:40;67.93;;;31.20;;
25824;SDS011;13658;44.534;18.694;2024-02-28T06:08:06;76.72;;;35.05;;
25824;SDS011;13658;44.534;18.694;2024-02-28T06:10:32;102.22;;;45.60;;
25824;SDS011;13658;44.534;18.694;2024-02-28T06:12:58;100.43;;;40.88;;
25824;SDS011;13658;44.534;18.694;2024-02-28T06:15:25;84.57;;;37.97;;
25824;SDS011;13658;44.534;18.694;2024-02-28T06:17:51;89.57;;;39.97;;
25824;SDS011;13658;44.534;18.694;2024-02-28T06:20:17;90.32;;;40.25;;
25824;SDS011;13658;44.534;18.694;2024-02-28T06:22:43;99.35;;;42.15;;
25824;SDS011;13658;44.534;18.694;2024-02-28T06:25:09;109.78;;;45.75;;
25824;SDS011;13658;44.534;18.694;2024-02-28T06:27:43;119.72;;;47.05;;
25824;SDS011;13658;44.534;18.694;2024-02-28T06:30:09;103.13;;;44.40;;
25824;SDS011;13658;44.534;18.694;2024-02-28T06:32:36;86.88;;;41.08;;
25824;SDS011;13658;44.534;18.694;2024-02-28T06:35:01;97.82;;;43.72;;
25824;SDS011;13658;44.534;18.694;2024-02-28T06:37:28;82.78;;;39.83;;
25824;SDS011;13658;44.534;18.694;2024-02-28T06:39:54;79.10;;;36.97;;
25824;SDS011;13658;44.534;18.694;2024-02-28T06:42:20;78.40;;;38.60;;
25824;SDS011;13658;44.534;18.694;2024-02-28T06:44:46;81.88;;;39.22;;
25824;SDS011;13658;44.534;18.694;2024-02-28T06:47:11;91.28;;;41.88;;
25824;SDS011;13658;44.534;18.694;2024-02-28T06:49:37;87.13;;;42.08;;
25824;SDS011;13658;44.534;18.694;2024-02-28T06:52:03;95.78;;;45.55;;
25824;SDS011;13658;44.534;18.694;2024-02-28T06:54:30;110.47;;;50.33;;
25824;SDS011;13658;44.534;18.694;2024-02-28T06:56:57;98.97;;;43.80;;
25824;SDS011;13658;44.534;18.694;2024-02-28T06:59:23;86.82;;;43.10;;
25824;SDS011;13658;44.534;18.694;2024-02-28T07:01:49;87.00;;;40.75;;
25824;SDS011;13658;44.534;18.694;2024-02-28T07:04:15;79.88;;;38.83;;
25824;SDS011;13658;44.534;18.694;2024-02-28T07:06:41;75.53;;;37.05;;
25824;SDS011;13658;44.534;18.694;2024-02-28T07:09:10;75.55;;;37.78;;
25824;SDS011;13658;44.534;18.694;2024-02-28T07:11:37;75.95;;;38.47;;
25824;SDS011;13658;44.534;18.694;2024-02-28T07:14:04;78.50;;;37.83;;
25824;SDS011;13658;44.534;18.694;2024-02-28T07:16:30;76.68;;;39.35;;
25824;SDS011;13658;44.534;18.694;2024-02-28T07:18:59;64.57;;;34.33;;
25824;SDS011;13658;44.534;18.694;2024-02-28T07:21:25;59.38;;;32.47;;
25824;SDS011;13658;44.534;18.694;2024-02-28T07:23:52;60.85;;;30.27;;
25824;SDS011;13658;44.534;18.694;2024-02-28T07:26:18;50.25;;;26.98;;
25824;SDS011;13658;44.534;18.694;2024-02-28T07:28:44;50.20;;;26.23;;
25824;SDS011;13658;44.534;18.694;2024-02-28T07:31:18;49.42;;;27.08;;
25824;SDS011;13658;44.534;18.694;2024-02-28T07:33:44;47.47;;;26.92;;
25824;SDS011;13658;44.534;18.694;2024-02-28T07:36:10;48.58;;;26.83;;
25824;SDS011;13658;44.534;18.694;2024-02-28T07:38:36;72.05;;;38.72;;
25824;SDS011;13658;44.534;18.694;2024-02-28T07:41:03;77.88;;;38.20;;
25824;SDS011;13658;44.534;18.694;2024-02-28T07:43:29;67.00;;;35.17;;
25824;SDS011;13658;44.534;18.694;2024-02-28T07:46:01;66.78;;;38.20;;
25824;SDS011;13658;44.534;18.694;2024-02-28T07:48:37;80.57;;;43.60;;
25824;SDS011;13658;44.534;18.694;2024-02-28T07:51:09;85.63;;;45.92;;
25824;SDS011;13658;44.534;18.694;2024-02-28T07:53:35;87.63;;;45.25;;
25824;SDS011;13658;44.534;18.694;2024-02-28T07:56:01;91.50;;;51.25;;
25824;SDS011;13658;44.534;18.694;2024-02-28T07:58:28;92.30;;;51.45;;
25824;SDS011;13658;44.534;18.694;2024-02-28T08:00:53;95.07;;;48.78;;
25824;SDS011;13658;44.534;18.694;2024-02-28T08:03:19;98.53;;;53.40;;
25824;SDS011;13658;44.534;18.694;2024-02-28T08:05:45;82.78;;;46.58;;
25824;SDS011;13658;44.534;18.694;2024-02-28T08:08:13;77.22;;;44.28;;
25824;SDS011;13658;44.534;18.694;2024-02-28T08:10:40;76.85;;;43.80;;
25824;SDS011;13658;44.534;18.694;2024-02-28T08:13:06;59.50;;;36.90;;
25824;SDS011;13658;44.534;18.694;2024-02-28T08:15:32;63.35;;;34.22;;
25824;SDS011;13658;44.534;18.694;2024-02-28T08:17:58;59.88;;;33.17;;
25824;SDS011;13658;44.534;18.694;2024-02-28T08:20:24;50.70;;;30.42;;
25824;SDS011;13658;44.534;18.694;2024-02-28T08:22:51;48.28;;;30.35;;
25824;SDS011;13658;44.534;18.694;2024-02-28T08:25:18;72.75;;;42.78;;
25824;SDS011;13658;44.534;18.694;2024-02-28T08:27:44;58.15;;;36.90;;
25824;SDS011;13658;44.534;18.694;2024-02-28T08:30:10;57.70;;;35.88;;
25824;SDS011;13658;44.534;18.694;2024-02-28T08:32:36;54.60;;;32.08;;
25824;SDS011;13658;44.534;18.694;2024-02-28T08:35:02;44.40;;;28.38;;
25824;SDS011;13658;44.534;18.694;2024-02-28T08:37:28;48.17;;;35.40;;
25824;SDS011;13658;44.534;18.694;2024-02-28T08:39:57;28.85;;;21.40;;
25824;SDS011;13658;44.534;18.694;2024-02-28T08:42:26;27.40;;;18.55;;
25824;SDS011;13658;44.534;18.694;2024-02-28T08:44:53;30.75;;;20.63;;
25824;SDS011;13658;44.534;18.694;2024-02-28T08:47:26;35.42;;;23.08;;
25824;SDS011;13658;44.534;18.694;2024-02-28T08:49:52;38.70;;;22.58;;
25824;SDS011;13658;44.534;18.694;2024-02-28T08:52:19;36.05;;;22.42;;
25824;SDS011;13658;44.534;18.694;2024-02-28T08:54:46;35.58;;;23.20;;
25824;SDS011;13658;44.534;18.694;2024-02-28T08:57:13;35.92;;;22.63;;
25824;SDS011;13658;44.534;18.694;2024-02-28T08:59:39;34.50;;;22.20;;
25824;SDS011;13658;44.534;18.694;2024-02-28T09:02:05;35.42;;;22.58;;
25824;SDS011;13658;44.534;18.694;2024-02-28T09:04:32;30.23;;;22.70;;
25824;SDS011;13658;44.534;18.694;2024-02-28T09:06:57;35.70;;;23.85;;
25824;SDS011;13658;44.534;18.694;2024-02-28T09:09:23;39.13;;;25.23;;
25824;SDS011;13658;44.534;18.694;2024-02-28T09:11:49;33.50;;;25.48;;
25824;SDS011;13658;44.534;18.694;2024-02-28T09:14:15;38.55;;;24.55;;
25824;SDS011;13658;44.534;18.694;2024-02-28T09:16:41;31.90;;;19.85;;
25824;SDS011;13658;44.534;18.694;2024-02-28T09:19:07;29.88;;;18.02;;
25824;SDS011;13658;44.534;18.694;2024-02-28T09:21:33;27.85;;;18.65;;
25824;SDS011;13658;44.534;18.694;2024-02-28T09:23:59;28.25;;;17.08;;
25824;SDS011;13658;44.534;18.694;2024-02-28T09:26:26;26.17;;;16.77;;
25824;SDS011;13658;44.534;18.694;2024-02-28T09:28:52;25.25;;;17.00;;
25824;SDS011;13658;44.534;18.694;2024-02-28T09:31:18;29.65;;;17.27;;
25824;SDS011;13658;44.534;18.694;2024-02-28T09:33:44;32.50;;;21.30;;
25824;SDS011;13658;44.534;18.694;2024-02-28T09:36:11;29.35;;;20.55;;
25824;SDS011;13658;44.534;18.694;2024-02-28T09:38:38;24.83;;;17.73;;
25824;SDS011;13658;44.534;18.694;2024-02-28T09:41:04;32.63;;;17.90;;
25824;SDS011;13658;44.534;18.694;2024-02-28T09:43:31;31.33;;;18.48;;
25824;SDS011;13658;44.534;18.694;2024-02-28T09:46:04;29.75;;;16.00;;
25824;SDS011;13658;44.534;18.694;2024-02-28T09:48:31;31.08;;;15.65;;
25824;SDS011;13658;44.534;18.694;2024-02-28T09:50:57;20.80;;;12.15;;
25824;SDS011;13658;44.534;18.694;2024-02-28T09:53:24;24.88;;;14.38;;
25824;SDS011;13658;44.534;18.694;2024-02-28T09:55:50;23.17;;;10.73;;
25824;SDS011;13658;44.534;18.694;2024-02-28T09:58:17;20.30;;;6.88;;
25824;SDS011;13658;44.534;18.694;2024-02-28T10:00:44;16.88;;;6.85;;
25824;SDS011;13658;44.534;18.694;2024-02-28T10:03:12;21.13;;;6.95;;
25824;SDS011;13658;44.534;18.694;2024-02-28T10:05:41;20.83;;;9.25;;
25824;SDS011;13658;44.534;18.694;2024-02-28T10:08:07;20.63;;;8.75;;
25824;SDS011;13658;44.534;18.694;2024-02-28T10:10:36;16.08;;;7.10;;
25824;SDS011;13658;44.534;18.694;2024-02-28T10:13:05;19.13;;;7.55;;
25824;SDS011;13658;44.534;18.694;2024-02-28T10:15:31;18.42;;;8.35;;
25824;SDS011;13658;44.534;18.694;2024-02-28T10:17:57;29.08;;;11.75;;
25824;SDS011;13658;44.534;18.694;2024-02-28T10:20:23;14.02;;;6.95;;
25824;SDS011;13658;44.534;18.694;2024-02-28T10:22:51;20.55;;;7.78;;
25824;SDS011;13658;44.534;18.694;2024-02-28T10:25:18;16.23;;;6.43;;
25824;SDS011;13658;44.534;18.694;2024-02-28T10:27:46;15.38;;;7.70;;
25824;SDS011;13658;44.534;18.694;2024-02-28T10:30:12;24.23;;;7.63;;
25824;SDS011;13658;44.534;18.694;2024-02-28T10:32:48;21.50;;;7.30;;
25824;SDS011;13658;44.534;18.694;2024-02-28T10:35:14;22.00;;;7.45;;
25824;SDS011;13658;44.534;18.694;2024-02-28T10:37:44;33.50;;;11.75;;
25824;SDS011;13658;44.534;18.694;2024-02-28T10:40:12;25.35;;;8.88;;
25824;SDS011;13658;44.534;18.694;2024-02-28T10:42:42;18.85;;;7.18;;
25824;SDS011;13658;44.534;18.694;2024-02-28T10:45:12;18.92;;;7.22;;
25824;SDS011;13658;44.534;18.694;2024-02-28T10:47:41;16.27;;;5.38;;
25824;SDS011;13658;44.534;18.694;2024-02-28T10:50:07;18.30;;;7.00;;
25824;SDS011;13658;44.534;18.694;2024-02-28T10:52:34;25.27;;;7.05;;
25824;SDS011;13658;44.534;18.694;2024-02-28T10:55:05;18.85;;;6.07;;
25824;SDS011;13658;44.534;18.694;2024-02-28T10:57:34;19.77;;;5.30;;
25824;SDS011;13658;44.534;18.694;2024-02-28T11:00:02;22.10;;;5.72;;
25824;SDS011;13658;44.534;18.694;2024-02-28T11:02:30;17.60;;;4.88;;
25824;SDS011;13658;44.534;18.694;2024-02-28T11:04:57;18.80;;;5.10;;
25824;SDS011;13658;44.534;18.694;2024-02-28T11:07:26;24.45;;;6.38;;
25824;SDS011;13658;44.534;18.694;2024-02-28T11:09:55;26.17;;;5.88;;
25824;SDS011;13658;44.534;18.694;2024-02-28T11:12:25;25.90;;;6.20;;
25824;SDS011;13658;44.534;18.694;2024-02-28T11:14:57;19.70;;;5.47;;
25824;SDS011;13658;44.534;18.694;2024-02-28T11:17:30;20.88;;;5.75;;
25824;SDS011;13658;44.534;18.694;2024-02-28T11:19:59;27.67;;;6.65;;
25824;SDS011;13658;44.534;18.694;2024-02-28T11:22:28;30.73;;;8.48;;
25824;SDS011;13658;44.534;18.694;2024-02-28T11:24:55;25.63;;;7.15;;
25824;SDS011;13658;44.534;18.694;2024-02-28T11:27:21;18.17;;;5.22;;
25824;SDS011;13658;44.534;18.694;2024-02-28T11:29:48;27.23;;;7.78;;
25824;SDS011;13658;44.534;18.694;2024-02-28T11:32:15;29.65;;;10.15;;
25824;SDS011;13658;44.534;18.694;2024-02-28T11:34:41;16.65;;;4.65;;
25824;SDS011;13658;44.534;18.694;2024-02-28T11:37:09;20.13;;;4.95;;
25824;SDS011;13658;44.534;18.694;2024-02-28T11:39:35;19.30;;;5.82;;
25824;SDS011;13658;44.534;18.694;2024-02-28T11:42:10;18.17;;;5.97;;
25824;SDS011;13658;44.534;18.694;2024-02-28T11:44:40;25.38;;;8.50;;
25824;SDS011;13658;44.534;18.694;2024-02-28T11:47:11;22.48;;;7.53;;
25824;SDS011;13658;44.534;18.694;2024-02-28T11:49:37;21.55;;;6.70;;
25824;SDS011;13658;44.534;18.694;2024-02-28T11:52:06;23.73;;;6.43;;
25824;SDS011;13658;44.534;18.694;2024-02-28T11:54:32;22.77;;;6.15;;
25824;SDS011;13658;44.534;18.694;2024-02-28T11:56:58;28.08;;;10.13;;
25824;SDS011;13658;44.534;18.694;2024-02-28T11:59:24;25.95;;;6.82;;
25824;SDS011;13658;44.534;18.694;2024-02-28T12:01:51;22.92;;;6.85;;
25824;SDS011;13658;44.534;18.694;2024-02-28T12:04:17;23.02;;;8.93;;
25824;SDS011;13658;44.534;18.694;2024-02-28T12:06:43;23.45;;;6.38;;
25824;SDS011;13658;44.534;18.694;2024-02-28T12:09:10;18.52;;;5.47;;
25824;SDS011;13658;44.534;18.694;2024-02-28T12:11:39;23.77;;;5.97;;
25824;SDS011;13658;44.534;18.694;2024-02-28T12:14:06;22.05;;;6.38;;
25824;SDS011;13658;44.534;18.694;2024-02-28T12:16:34;24.83;;;5.68;;
25824;SDS011;13658;44.534;18.694;2024-02-28T12:19:09;19.63;;;4.50;;
25824;SDS011;13658;44.534;18.694;2024-02-28T12:21:37;20.42;;;5.68;;
25824;SDS011;13658;44.534;18.694;2024-02-28T12:24:04;15.38;;;5.68;;
25824;SDS011;13658;44.534;18.694;2024-02-28T12:26:39;15.60;;;5.00;;
25824;SDS011;13658;44.534;18.694;2024-02-28T12:29:05;22.20;;;5.25;;
25824;SDS011;13658;44.534;18.694;2024-02-28T12:31:32;16.83;;;5.60;;
25824;SDS011;13658;44.534;18.694;2024-02-28T12:33:58;14.80;;;5.28;;
25824;SDS011;13658;44.534;18.694;2024-02-28T12:36:24;19.95;;;5.05;;
25824;SDS011;13658;44.534;18.694;2024-02-28T12:38:50;17.55;;;5.50;;
25824;SDS011;13658;44.534;18.694;2024-02-28T12:41:16;17.42;;;5.80;;
25824;SDS011;13658;44.534;18.694;2024-02-28T12:43:42;20.52;;;6.78;;
25824;SDS011;13658;44.534;18.694;2024-02-28T12:46:08;18.15;;;7.15;;
25824;SDS011;13658;44.534;18.694;2024-02-28T12:48:39;22.15;;;7.50;;
25824;SDS011;13658;44.534;18.694;2024-02-28T12:51:11;21.63;;;9.20;;
25824;SDS011;13658;44.534;18.694;2024-02-28T12:53:46;17.58;;;8.38;;
25824;SDS011;13658;44.534;18.694;2024-02-28T12:56:14;20.02;;;8.50;;
25824;SDS011;13658;44.534;18.694;2024-02-28T12:58:40;22.50;;;8.25;;
25824;SDS011;13658;44.534;18.694;2024-02-28T13:01:06;17.52;;;7.50;;
25824;SDS011;13658;44.534;18.694;2024-02-28T13:03:34;16.80;;;8.55;;
25824;SDS011;13658;44.534;18.694;2024-02-28T13:06:00;15.05;;;7.45;;
25824;SDS011;13658;44.534;18.694;2024-02-28T13:08:26;22.15;;;12.65;;
25824;SDS011;13658;44.534;18.694;2024-02-28T13:10:52;21.20;;;9.23;;
25824;SDS011;13658;44.534;18.694;2024-02-28T13:13:18;17.15;;;9.32;;
25824;SDS011;13658;44.534;18.694;2024-02-28T13:15:44;21.75;;;9.30;;
25824;SDS011;13658;44.534;18.694;2024-02-28T13:18:10;17.27;;;9.07;;
25824;SDS011;13658;44.534;18.694;2024-02-28T13:20:36;15.27;;;8.25;;
25824;SDS011;13658;44.534;18.694;2024-02-28T13:23:03;19.73;;;8.93;;
25824;SDS011;13658;44.534;18.694;2024-02-28T13:25:29;18.92;;;7.82;;
25824;SDS011;13658;44.534;18.694;2024-02-28T13:27:55;20.10;;;8.30;;
25824;SDS011;13658;44.534;18.694;2024-02-28T13:30:21;19.67;;;8.68;;
25824;SDS011;13658;44.534;18.694;2024-02-28T13:32:47;18.63;;;8.30;;
25824;SDS011;13658;44.534;18.694;2024-02-28T13:35:13;18.23;;;8.15;;
25824;SDS011;13658;44.534;18.694;2024-02-28T13:37:39;20.27;;;8.82;;
25824;SDS011;13658;44.534;18.694;2024-02-28T13:40:06;22.80;;;9.27;;
25824;SDS011;13658;44.534;18.694;2024-02-28T13:42:33;25.38;;;8.73;;
25824;SDS011;13658;44.534;18.694;2024-02-28T13:44:59;23.23;;;12.68;;
25824;SDS011;13658;44.534;18.694;2024-02-28T13:47:24;37.58;;;20.40;;
25824;SDS011;13658;44.534;18.694;2024-02-28T13:49:50;23.67;;;8.25;;
25824;SDS011;13658;44.534;18.694;2024-02-28T13:52:16;22.98;;;9.10;;
25824;SDS011;13658;44.534;18.694;2024-02-28T13:54:42;15.25;;;8.50;;
25824;SDS011;13658;44.534;18.694;2024-02-28T13:57:08;26.02;;;9.07;;
25824;SDS011;13658;44.534;18.694;2024-02-28T13:59:34;20.05;;;9.00;;
25824;SDS011;13658;44.534;18.694;2024-02-28T14:02:00;22.77;;;8.35;;
25824;SDS011;13658;44.534;18.694;2024-02-28T14:04:26;14.25;;;7.93;;
25824;SDS011;13658;44.534;18.694;2024-02-28T14:06:52;17.60;;;7.38;;
25824;SDS011;13658;44.534;18.694;2024-02-28T14:09:18;20.33;;;8.02;;
25824;SDS011;13658;44.534;18.694;2024-02-28T14:11:44;18.95;;;7.78;;